createdAt,value
2023-01-12T00:01:39.037Z,100338.58
2023-01-12T00:05:22.235Z,100342.58
2023-01-12T00:09:07.187Z,100340.58
2023-01-12T00:12:50.207Z,100341.26
2023-01-12T00:16:31.769Z,100344.02
2023-01-12T00:20:14.874Z,100347.66
2023-01-12T00:23:57.906Z,100352.39
2023-01-12T00:27:40.965Z,100359.77
2023-01-12T00:31:24.223Z,100364.85
2023-01-12T00:34:59.733Z,100364.65
2023-01-12T00:38:42.871Z,100362.70
2023-01-12T00:42:24.313Z,100364.67
2023-01-12T00:46:07.794Z,100366.18
2023-01-12T00:49:51.143Z,100366.07
2023-01-12T00:53:34.410Z,100364.65
2023-01-12T00:57:12.635Z,100367.33
2023-01-12T01:00:55.987Z,100362.82
2023-01-12T01:04:39.170Z,100361.61
2023-01-12T01:08:22.347Z,100366.80
2023-01-12T01:12:05.701Z,100360.61
2023-01-12T01:15:41.544Z,100361.04
2023-01-12T01:19:24.545Z,100357.25
2023-01-12T01:23:07.819Z,100347.83
2023-01-12T01:26:51.065Z,100353.36
2023-01-12T01:30:34.210Z,100349.27
2023-01-12T01:34:17.229Z,100357.09
2023-01-12T01:38:00.374Z,100362.30
2023-01-12T01:41:36.027Z,100365.58
2023-01-12T01:45:31.021Z,100359.42
2023-01-12T01:49:14.201Z,100362.79
2023-01-12T01:53:03.320Z,100355.05
2023-01-12T01:56:21.359Z,100360.13
2023-01-12T01:59:47.037Z,100357.84
2023-01-12T02:03:32.070Z,100359.80
2023-01-12T02:07:16.933Z,100364.67
2023-01-12T02:10:42.879Z,100357.36
2023-01-12T02:14:09.635Z,100355.08
2023-01-12T02:17:58.530Z,100361.42
2023-01-12T02:21:44.031Z,100356.50
2023-01-12T02:25:35.836Z,100363.39
2023-01-12T02:29:27.691Z,100367.30
2023-01-12T02:33:13.287Z,100358.79
2023-01-12T02:37:08.118Z,100368.21
2023-01-12T02:41:00.186Z,100374.70
2023-01-12T02:44:43.279Z,100376.41
2023-01-12T02:48:47.504Z,100375.82
2023-01-12T02:52:31.143Z,100381.61
2023-01-12T02:56:14.177Z,100379.13
2023-01-12T02:59:57.333Z,100381.58
2023-01-12T03:03:40.397Z,100380.71
2023-01-12T03:07:23.441Z,100381.15
2023-01-12T03:11:18.508Z,100384.30
2023-01-12T03:15:01.713Z,100389.73
2023-01-12T03:19:00.321Z,100394.71
2023-01-12T03:22:43.370Z,100388.17
2023-01-12T03:26:26.444Z,100398.55
2023-01-12T03:30:09.804Z,100396.71
2023-01-12T03:33:52.812Z,100400.21
2023-01-12T03:37:41.712Z,100401.98
2023-01-12T03:41:27.343Z,100401.81
2023-01-12T03:45:09.011Z,100403.40
2023-01-12T03:48:40.728Z,100401.63
2023-01-12T03:52:35.738Z,100401.40
2023-01-12T03:56:18.970Z,100399.21
2023-01-12T03:59:54.904Z,100397.90
2023-01-12T04:03:52.825Z,100389.52
2023-01-12T04:07:35.850Z,100384.49
2023-01-12T04:11:08.972Z,100390.98
2023-01-12T04:14:52.117Z,100392.56
2023-01-12T04:18:35.142Z,100396.09
2023-01-12T04:22:06.442Z,100390.89
2023-01-12T04:25:52.294Z,100393.91
2023-01-12T04:29:35.359Z,100399.34
2023-01-12T04:33:18.281Z,100398.52
2023-01-12T04:37:01.264Z,100405.40
2023-01-12T04:40:44.439Z,100409.83
2023-01-12T04:44:19.723Z,100409.77
2023-01-12T04:48:03.115Z,100409.23
2023-01-12T04:51:47.180Z,100414.49
2023-01-12T04:55:30.361Z,100419.70
2023-01-12T04:58:56.227Z,100423.40
2023-01-12T05:02:27.911Z,100423.27
2023-01-12T05:06:12.469Z,100417.38
2023-01-12T05:10:10.743Z,100418.42
2023-01-12T05:13:53.896Z,100411.20
2023-01-12T05:18:05.814Z,100412.55
2023-01-12T05:21:50.476Z,100412.89
2023-01-12T05:25:28.237Z,100416.95
2023-01-12T05:29:12.855Z,100417.83
2023-01-12T05:32:57.585Z,100418.93
2023-01-12T05:36:48.301Z,100414.80
2023-01-12T05:40:34.692Z,100421.67
2023-01-12T05:44:19.979Z,100425.59
2023-01-12T05:48:01.987Z,100422.58
2023-01-12T05:51:45.527Z,100426.55
2023-01-12T05:55:21.242Z,100429.30
2023-01-12T05:59:05.962Z,100432.50
2023-01-12T06:02:49.532Z,100434.63
2023-01-12T06:06:33.012Z,100434.01
2023-01-12T06:10:17.630Z,100433.79
2023-01-12T06:14:17.696Z,100446.46
2023-01-12T06:18:02.335Z,100449.58
2023-01-12T06:21:45.861Z,100450.19
2023-01-12T06:25:30.627Z,100451.89
2023-01-12T06:29:17.956Z,100453.38
2023-01-12T06:33:02.725Z,100458.70
2023-01-12T06:36:50.458Z,100461.81
2023-01-12T06:40:35.182Z,100467.02
2023-01-12T06:44:19.834Z,100468.95
2023-01-12T06:48:04.344Z,100471.05
2023-01-12T06:51:49.217Z,100468.28
2023-01-12T06:55:34.010Z,100472.74
2023-01-12T06:59:18.673Z,100467.35
2023-01-12T07:03:03.290Z,100468.77
2023-01-12T07:06:46.384Z,100466.65
2023-01-12T07:10:30.858Z,100476.77
2023-01-12T07:14:09.296Z,100478.98
2023-01-12T07:17:53.824Z,100473.11
2023-01-12T07:21:39.540Z,100483.87
2023-01-12T07:25:24.096Z,100487.23
2023-01-12T07:29:01.180Z,100493.09
2023-01-12T07:32:46.083Z,100494.59
2023-01-12T07:36:30.522Z,100504.70
2023-01-12T07:40:14.873Z,100501.06
2023-01-12T07:44:02.230Z,100503.88
2023-01-12T07:47:46.996Z,100506.89
2023-01-12T07:51:31.381Z,100514.15
2023-01-12T07:55:15.916Z,100518.27
2023-01-12T07:59:00.343Z,100516.45
2023-01-12T08:02:44.707Z,100521.24
2023-01-12T08:06:29.145Z,100527.39
2023-01-12T08:09:58.573Z,100534.58
2023-01-12T08:13:43.083Z,100530.02
2023-01-12T08:17:30.405Z,100536.44
2023-01-12T08:21:15.119Z,100537.10
2023-01-12T08:24:59.754Z,100539.80
2023-01-12T08:28:44.448Z,100542.33
2023-01-12T08:32:29.112Z,100547.48
2023-01-12T08:40:03.186Z,100558.77
2023-01-12T08:43:46.024Z,100565.91
2023-01-12T08:47:33.610Z,100568.23
2023-01-12T08:51:18.176Z,100567.75
2023-01-12T08:55:02.696Z,100568.77
2023-01-12T08:58:47.144Z,100569.63
2023-01-12T09:02:20.456Z,100567.10
2023-01-12T09:06:05.056Z,100567.34
2023-01-12T09:09:37.854Z,100570.05
2023-01-12T09:13:22.318Z,100563.23
2023-01-12T09:17:07.021Z,100549.16
2023-01-12T09:20:44.363Z,100540.06
2023-01-12T09:24:14.052Z,100530.52
2023-01-12T09:27:59.709Z,100528.48
2023-01-12T09:31:44.438Z,100527.98
2023-01-12T09:35:22.068Z,100535.48
2023-01-12T09:39:09.834Z,100526.91
2023-01-12T09:42:56.288Z,100525.33
2023-01-12T09:46:39.652Z,100521.94
2023-01-12T09:50:27.312Z,100515.42
2023-01-12T09:54:06.554Z,100508.21
2023-01-12T09:57:51.136Z,100500.87
2023-01-12T10:01:35.823Z,100497.52
2023-01-12T10:05:23.804Z,100492.61
2023-01-12T10:09:38.765Z,100490.89
2023-01-12T10:13:23.279Z,100493.14
2023-01-12T10:17:12.017Z,100494.39
2023-01-12T10:21:14.579Z,100483.31
2023-01-12T10:25:00.723Z,100484.17
2023-01-12T10:28:37.012Z,100487.27
2023-01-12T10:32:23.267Z,100480.97
2023-01-12T10:36:08.752Z,100474.35
2023-01-12T10:40:04.898Z,100470.69
2023-01-12T10:43:56.915Z,100470.34
2023-01-12T10:47:17.563Z,100470.34
2023-01-12T10:51:00.312Z,100467.84
2023-01-12T10:54:58.926Z,100467.23
2023-01-12T10:58:44.831Z,100464.27
2023-01-12T11:02:48.638Z,100449.43
2023-01-12T11:06:36.196Z,100446.98
2023-01-12T11:10:23.372Z,100441.95
2023-01-12T11:14:08.015Z,100443.50
2023-01-12T11:17:58.459Z,100451.23
2023-01-12T11:21:37.626Z,100446.61
2023-01-12T11:25:28.120Z,100435.51
2023-01-12T11:29:15.356Z,100426.48
2023-01-12T11:32:58.082Z,100422.34
2023-01-12T11:36:42.564Z,100421.74
2023-01-12T11:40:27.027Z,100423.67
2023-01-12T11:44:14.015Z,100416.91
2023-01-12T11:48:01.390Z,100415.77
2023-01-12T11:51:45.875Z,100416.56
2023-01-12T11:55:19.223Z,100414.27
2023-01-12T11:59:21.356Z,100412.19
2023-01-12T12:03:07.269Z,100418.24
2023-01-12T12:06:54.226Z,100416.61
2023-01-12T12:10:38.674Z,100410.15
2023-01-12T12:14:25.792Z,100405.36
2023-01-12T12:18:31.396Z,100399.68
2023-01-12T12:22:18.928Z,100393.29
2023-01-12T12:26:15.021Z,100390.08
2023-01-12T12:30:08.093Z,100389.77
2023-01-12T12:34:03.032Z,100387.77
2023-01-12T12:37:56.144Z,100384.61
2023-01-12T12:41:53.747Z,100371.46
2023-01-12T12:45:43.945Z,100370.58
2023-01-12T12:49:30.701Z,100374.31
2023-01-12T12:53:15.109Z,100377.98
2023-01-12T12:56:59.570Z,100376.02
2023-01-12T13:00:53.157Z,100382.30
2023-01-12T13:04:40.367Z,100381.92
2023-01-12T13:08:24.865Z,100379.55
2023-01-12T13:12:27.318Z,100376.83
2023-01-12T13:16:12.673Z,100372.89
2023-01-12T13:20:01.356Z,100370.46
2023-01-12T13:23:48.187Z,100370.02
2023-01-12T13:27:35.582Z,100360.55
2023-01-12T13:31:20.317Z,100352.46
2023-01-12T13:35:09.059Z,100347.12
2023-01-12T13:38:59.695Z,100345.98
2023-01-12T13:42:43.657Z,100343.48
2023-01-12T13:46:37.562Z,100343.41
2023-01-12T13:50:25.137Z,100340.67
2023-01-12T13:54:09.837Z,100339.11
2023-01-12T13:58:00.500Z,100326.42
2023-01-12T14:01:45.368Z,100327.51
2023-01-12T14:05:43.645Z,100323.69
2023-01-12T14:09:30.942Z,100329.40
2023-01-12T14:13:36.554Z,100331.67
2023-01-12T14:17:19.670Z,100325.52
2023-01-12T14:21:07.363Z,100328.98
2023-01-12T14:24:54.960Z,100324.47
2023-01-12T14:28:39.520Z,100315.58
2023-01-12T14:32:24.258Z,100315.47
2023-01-12T14:36:09.454Z,100316.13
2023-01-12T14:39:54.191Z,100318.28
2023-01-12T14:43:37.276Z,100314.73
2023-01-12T14:47:34.779Z,100311.88
2023-01-12T14:51:19.904Z,100301.32
2023-01-12T14:55:10.622Z,100298.73
2023-01-12T14:58:49.996Z,100298.25
2023-01-12T15:02:34.750Z,100298.30
2023-01-12T15:06:10.638Z,100298.50
2023-01-12T15:09:43.939Z,100292.55
2023-01-12T15:13:31.392Z,100295.84
2023-01-12T15:17:15.392Z,100297.16
2023-01-12T15:20:58.135Z,100292.41
2023-01-12T15:24:41.237Z,100291.02
2023-01-12T15:28:26.117Z,100289.85
2023-01-12T15:32:05.545Z,100290.55
2023-01-12T15:35:42.866Z,100295.07
2023-01-12T15:39:27.596Z,100298.71
2023-01-12T15:43:12.274Z,100297.96
2023-01-12T15:46:56.929Z,100306.23
2023-01-12T15:50:41.412Z,100310.27
2023-01-12T15:54:18.643Z,100308.05
2023-01-12T15:58:03.180Z,100313.27
2023-01-12T16:01:48.100Z,100321.70
2023-01-12T16:05:32.949Z,100323.19
2023-01-12T16:09:10.501Z,100323.41
2023-01-12T16:12:55.023Z,100323.48
2023-01-12T16:16:39.677Z,100320.56
2023-01-12T16:20:24.314Z,100313.82
2023-01-12T16:24:08.917Z,100312.23
2023-01-12T16:27:46.509Z,100314.35
2023-01-12T16:31:31.092Z,100310.96
2023-01-12T16:35:02.438Z,100308.95
2023-01-12T16:38:47.196Z,100310.27
2023-01-12T16:42:31.707Z,100314.39
2023-01-12T16:46:16.469Z,100310.05
2023-01-12T16:50:01.176Z,100308.98
2023-01-12T16:53:46.020Z,100308.48
2023-01-12T16:57:30.801Z,100303.28
2023-01-12T17:01:15.579Z,100309.34
2023-01-12T17:04:49.187Z,100302.72
2023-01-12T17:08:33.836Z,100305.33
2023-01-12T17:11:59.450Z,100302.85
2023-01-12T17:15:44.469Z,100301.55
2023-01-12T17:19:29.430Z,100301.86
2023-01-12T17:23:13.963Z,100295.17
2023-01-12T17:27:04.707Z,100289.77
2023-01-12T17:30:35.125Z,100285.89
2023-01-12T17:34:20.099Z,100287.45
2023-01-12T17:38:04.730Z,100282.08
2023-01-12T17:41:48.760Z,100277.83
2023-01-12T17:45:33.696Z,100273.98
2023-01-12T17:49:18.479Z,100266.23
2023-01-12T17:53:03.141Z,100260.63
2023-01-12T17:56:47.781Z,100261.98
2023-01-12T18:00:24.965Z,100255.91
2023-01-12T18:04:09.566Z,100251.99
2023-01-12T18:07:54.210Z,100246.86
2023-01-12T18:11:39.023Z,100251.41
2023-01-12T18:15:23.790Z,100256.22
2023-01-12T18:18:56.760Z,100260.88
2023-01-12T18:22:41.134Z,100258.42
2023-01-12T18:26:24.389Z,100256.27
2023-01-12T18:29:57.163Z,100255.39
2023-01-12T18:33:34.235Z,100246.77
2023-01-12T18:37:18.589Z,100240.48
2023-01-12T18:40:51.991Z,100234.83
2023-01-12T18:44:24.752Z,100229.12
2023-01-12T18:48:07.670Z,100227.13
2023-01-12T18:51:53.668Z,100223.02
2023-01-12T18:55:38.138Z,100216.92
2023-01-12T18:59:15.516Z,100215.02
2023-01-12T19:02:42.635Z,100206.52
2023-01-12T19:06:33.044Z,100207.54
2023-01-12T19:10:17.539Z,100205.59
2023-01-12T19:14:00.391Z,100206.08
2023-01-12T19:17:47.790Z,100202.55
2023-01-12T19:21:30.757Z,100204.00
2023-01-12T19:25:13.762Z,100200.69
2023-01-12T19:28:58.105Z,100203.91
2023-01-12T19:32:42.548Z,100204.70
2023-01-12T19:36:15.400Z,100202.13
2023-01-12T19:40:08.941Z,100201.75
2023-01-12T19:43:34.365Z,100200.85
2023-01-12T19:47:18.863Z,100203.16
2023-01-12T19:51:01.961Z,100198.93
2023-01-12T19:54:39.542Z,100200.77
2023-01-12T19:58:16.241Z,100200.85
2023-01-12T20:01:49.476Z,100198.44
2023-01-12T20:05:34.105Z,100194.70
2023-01-12T20:09:19.543Z,100195.53
2023-01-12T20:13:04.439Z,100194.80
2023-01-12T20:16:38.077Z,100199.63
2023-01-12T20:20:22.641Z,100196.54
2023-01-12T20:24:07.234Z,100198.05
2023-01-12T20:27:51.835Z,100194.48
2023-01-12T20:31:36.638Z,100189.64
2023-01-12T20:35:21.516Z,100190.80
2023-01-12T20:39:06.223Z,100193.86
2023-01-12T20:42:43.612Z,100192.95
2023-01-12T20:46:28.232Z,100192.71
2023-01-12T20:50:12.801Z,100189.23
2023-01-12T20:53:58.833Z,100193.32
2023-01-12T20:57:43.362Z,100184.23
2023-01-12T21:01:28.779Z,100184.27
2023-01-12T21:05:13.547Z,100185.30
2023-01-12T21:08:46.506Z,100180.31
2023-01-12T21:12:30.911Z,100182.90
2023-01-12T21:16:16.788Z,100184.80
2023-01-12T21:20:01.506Z,100185.30
2023-01-12T21:23:46.110Z,100184.50
2023-01-12T21:27:30.588Z,100185.23
2023-01-12T21:31:15.064Z,100184.75
2023-01-12T21:34:59.452Z,100182.55
2023-01-12T21:38:44.145Z,100180.56
2023-01-12T21:42:27.009Z,100175.33
2023-01-12T21:46:11.721Z,100175.52
2023-01-12T21:49:56.148Z,100166.90
2023-01-12T21:53:40.610Z,100163.89
2023-01-12T21:57:25.076Z,100163.89
2023-01-12T22:00:57.401Z,100162.70
2023-01-12T22:04:41.884Z,100164.23
2023-01-12T22:08:29.150Z,100160.96
2023-01-12T22:12:13.652Z,100159.46
2023-01-12T22:15:58.081Z,100160.27
2023-01-12T22:19:38.041Z,100151.45
2023-01-12T22:23:23.681Z,100148.31
2023-01-12T22:27:00.768Z,100142.09
2023-01-12T22:30:45.343Z,100134.58
2023-01-12T22:34:29.841Z,100130.91
2023-01-12T22:38:14.817Z,100128.17
2023-01-12T22:42:08.130Z,100122.39
2023-01-12T22:45:52.624Z,100119.86
2023-01-12T22:49:37.079Z,100119.00
2023-01-12T22:53:21.552Z,100121.55
2023-01-12T22:57:06.249Z,100118.75
2023-01-12T23:00:51.023Z,100115.39
2023-01-12T23:04:35.491Z,100108.35
2023-01-12T23:08:19.942Z,100105.23
2023-01-12T23:12:04.282Z,100108.67
2023-01-12T23:15:48.753Z,100105.23
2023-01-12T23:19:33.264Z,100114.42
2023-01-12T23:23:17.671Z,100115.02
2023-01-12T23:27:02.090Z,100121.95
2023-01-12T23:30:46.662Z,100116.68
2023-01-12T23:34:31.648Z,100111.86
2023-01-12T23:38:16.039Z,100109.45
2023-01-12T23:42:00.454Z,100112.54
2023-01-12T23:45:45.398Z,100115.08
2023-01-12T23:49:19.077Z,100116.33
2023-01-12T23:53:03.483Z,100113.71
2023-01-12T23:56:48.067Z,100111.08
